This is the latest recevied weather packets stored in our database for station/object OE9FWV. If no packets are shown the sender has not sent any weather packets the latest 10 day(s).
| Time | Temp. | Humidity | Pressure | Rain* | Wind** | Luminosity | Snow |
|---|---|---|---|---|---|---|---|
| 1777834050 | 19.44° C | 52% | 1012 hPa | 0 mm | - | - | - |
| 1777832847 | 19.44° C | 53% | 1011.9 hPa | 0 mm | - | - | - |
| 1777831643 | 20.56° C | 54% | 1011.6 hPa | 0 mm | - | - | - |
| 1777831038 | 21.11° C | 51% | 1011.6 hPa | 0 mm | - | - | - |
| 1777830433 | 21.67° C | 50% | 1011.4 hPa | 0 mm | - | - | - |
| 1777829833 | 22.22° C | 47% | 1011.4 hPa | 0 mm | - | - | - |
| 1777829229 | 22.78° C | 46% | 1011.4 hPa | 0 mm | - | - | - |
| 1777828013 | 22.78° C | 44% | 1011.2 hPa | 0 mm | - | - | - |
| 1777827406 | 23.33° C | 44% | 1011.1 hPa | 0 mm | - | - | - |
| 1777826797 | 23.33° C | 43% | 1011.1 hPa | 0 mm | - | - | - |
| 1777826197 | 23.33° C | 43% | 1011.1 hPa | 0 mm | - | - | - |
| 1777825597 | 24.44° C | 42% | 1011 hPa | 0 mm | - | - | - |
| 1777824386 | 25.56° C | 40% | 1010.7 hPa | 0 mm | - | - | - |
| 1777823779 | 25.56° C | 40% | 1010.8 hPa | 0 mm | - | - | - |
| 1777823178 | 25.56° C | 40% | 1010.7 hPa | 0 mm | - | - | - |
| 1777822576 | 25° C | 43% | 1010.7 hPa | 0 mm | - | - | - |
| 1777821973 | 24.44° C | 44% | 1010.7 hPa | 0 mm | - | - | - |
| 1777821373 | 24.44° C | 42% | 1010.8 hPa | 0 mm | - | - | - |
| 1777820773 | 24.44° C | 40% | 1010.7 hPa | 0 mm | - | - | - |
| 1777820170 | 24.44° C | 40% | 1010.8 hPa | 0 mm | - | - | - |
| 1777819562 | 24.44° C | 42% | 1010.9 hPa | 0 mm | - | - | - |
| 1777818355 | 24.44° C | 42% | 1011.1 hPa | 0 mm | - | - | - |
| 1777817151 | 25° C | 41% | 1011.2 hPa | 0 mm | - | - | - |
| 1777816544 | 25.56° C | 41% | 1011.2 hPa | 0 mm | - | - | - |
| 1777815941 | 25.56° C | 42% | 1011.3 hPa | 0 mm | - | - | - |
* Rain latest hour (hover to see other rain measurements)
** Current wind speed in m/s (hover to see current wind gust speed)